Terminal Aerodrome Forecast
Issued by NWS La Crosse, WI

Home | Current Version | Previous Version | Text Only | Print | Product List | Glossary On
Versions: 1 2 3 4 5 6 7 8 9 10 11 12 13 14 15 16 17 18 19 20 21 22 23 24 25 26 27 28 29 30 31 32 33 34 35 36
000
FTUS43 KARX 302320
TAFLSE
TAF
KLSE 302320Z 3100/3124 13006KT P6SM SCT120
     FM310300 04005KT P6SM SKC
     FM310700 VRB03KT P6SM SKC
     FM311400 28010KT P6SM SKC
     FM311900 31014G20KT P6SM SKC=

USA.gov is the U.S. government's official web portal to all federal, state and local government web resources and services.